Time;durP1;ratioP1;P1;durP2;ratioP2;P2;SDS_P1;SDS_P2;PMS_P1;PMS_P2;Temp;Humidity;BMP_temperature;BMP_pressure;BME280_temperature;BME280_humidity;BME280_pressure;Samples;Min_cycle;Max_cycle;Signal;HPM_P1;HPM_P2
2022/11/30 00:00:55;;;;;;;16.10;9.70;;;;;;;3.92;100.00;98908.59;4202592;28;20067;-76
2022/11/30 00:02:57;;;;;;;13.93;9.00;;;;;;;3.92;100.00;98914.06;4199195;28;20315;-76
2022/11/30 00:04:57;;;;;;;14.02;7.72;;;;;;;3.88;100.00;98905.66;4201967;28;20377;-76
2022/11/30 00:06:57;;;;;;;12.85;8.25;;;;;;;3.86;100.00;98910.66;4202886;28;20040;-76
2022/11/30 00:08:58;;;;;;;13.18;8.77;;;;;;;3.86;100.00;98915.34;4201105;28;20051;-76
2022/11/30 00:10:58;;;;;;;12.73;8.18;;;;;;;3.84;100.00;98915.66;4200769;28;20843;-76
2022/11/30 00:12:59;;;;;;;12.38;8.15;;;;;;;3.86;100.00;98926.28;4201476;28;20047;-76
2022/11/30 00:14:59;;;;;;;21.10;8.98;;;;;;;3.84;100.00;98918.41;4202197;28;20324;-76
2022/11/30 00:17:00;;;;;;;14.90;9.07;;;;;;;3.81;100.00;98910.84;4202735;28;20044;-76
2022/11/30 00:19:00;;;;;;;16.25;9.48;;;;;;;3.83;100.00;98914.06;4202452;28;20473;-76
2022/11/30 00:21:02;;;;;;;21.20;11.27;;;;;;;3.85;100.00;98925.50;4202379;28;20048;-76
2022/11/30 00:23:02;;;;;;;18.00;10.80;;;;;;;3.84;100.00;98917.59;4201859;28;20040;-76
2022/11/30 00:25:03;;;;;;;20.52;11.57;;;;;;;3.84;100.00;98921.16;4203149;28;20986;-76
2022/11/30 00:27:03;;;;;;;21.63;11.52;;;;;;;3.89;100.00;98929.22;4202359;28;20525;-76
2022/11/30 00:29:04;;;;;;;23.00;11.32;;;;;;;3.87;100.00;98920.50;4202728;28;20036;-75
2022/11/30 00:31:09;;;;;;;20.45;11.75;;;;;;;3.86;100.00;98927.09;4202746;28;20052;-76
2022/11/30 00:33:09;;;;;;;28.05;13.13;;;;;;;3.83;100.00;98922.28;4202126;28;20040;-76
2022/11/30 00:35:09;;;;;;;19.65;10.82;;;;;;;3.85;100.00;98928.22;4202667;28;20124;-76
2022/11/30 00:37:10;;;;;;;20.88;11.05;;;;;;;3.83;100.00;98922.28;4202771;28;20423;-75
2022/11/30 00:39:10;;;;;;;18.52;10.55;;;;;;;3.83;100.00;98925.00;4200631;28;20044;-75
2022/11/30 00:41:11;;;;;;;19.27;11.15;;;;;;;3.84;100.00;98925.81;4201515;28;20047;-75
2022/11/30 00:43:11;;;;;;;18.15;10.18;;;;;;;3.87;100.00;98925.97;4182607;28;20689;-75
2022/11/30 00:45:12;;;;;;;19.23;11.07;;;;;;;3.87;100.00;98925.97;4201251;28;20047;-76
2022/11/30 00:47:12;;;;;;;17.42;10.10;;;;;;;3.88;100.00;98924.03;4184419;28;20044;-75
2022/11/30 00:49:12;;;;;;;17.80;10.18;;;;;;;3.89;100.00;98920.19;4202437;28;20036;-76
2022/11/30 00:51:13;;;;;;;19.38;10.52;;;;;;;3.89;100.00;98917.44;4202098;28;20484;-75
2022/11/30 00:53:13;;;;;;;19.20;10.50;;;;;;;3.89;100.00;98909.25;4201556;28;20044;-76
2022/11/30 00:55:13;;;;;;;23.08;11.35;;;;;;;3.90;100.00;98916.31;4202031;28;20056;-76
2022/11/30 00:57:14;;;;;;;18.63;11.43;;;;;;;3.90;100.00;98917.13;4202423;28;20083;-75
2022/11/30 00:59:14;;;;;;;17.88;9.45;;;;;;;3.92;100.00;98922.28;4202536;28;20052;-75
2022/11/30 01:01:14;;;;;;;21.10;10.95;;;;;;;3.91;100.00;98924.22;4201988;28;20124;-76
2022/11/30 01:03:15;;;;;;;15.95;10.30;;;;;;;3.92;100.00;98925.81;4202178;28;20130;-75
2022/11/30 01:05:15;;;;;;;19.90;10.40;;;;;;;3.92;100.00;98923.06;4202565;28;20131;-75
2022/11/30 01:07:15;;;;;;;16.25;9.48;;;;;;;3.90;100.00;98924.53;4201742;28;20038;-76
2022/11/30 01:09:16;;;;;;;15.15;9.30;;;;;;;3.92;100.00;98930.47;4201942;28;20031;-76
2022/11/30 01:11:22;;;;;;;18.35;10.13;;;;;;;3.92;100.00;98928.56;4183919;28;20143;-75
2022/11/30 01:13:23;;;;;;;17.77;10.35;;;;;;;3.92;100.00;98934.03;4201947;28;20044;-76
2022/11/30 01:15:23;;;;;;;20.70;9.60;;;;;;;3.91;100.00;98935.16;4201564;28;20059;-76
2022/11/30 01:17:23;;;;;;;16.98;9.60;;;;;;;3.93;100.00;98937.56;4184270;28;20316;-76
2022/11/30 01:19:24;;;;;;;14.45;8.90;;;;;;;3.91;100.00;98940.63;4202019;28;20135;-76
2022/11/30 01:21:26;;;;;;;16.75;9.07;;;;;;;3.94;100.00;98933.69;4202385;28;20495;-76
2022/11/30 01:23:26;;;;;;;19.17;8.93;;;;;;;3.92;100.00;98933.22;4201157;28;20043;-76
2022/11/30 01:25:27;;;;;;;19.23;10.38;;;;;;;3.94;100.00;98933.69;4201936;28;20044;-76
2022/11/30 01:27:27;;;;;;;15.90;9.20;;;;;;;3.93;100.00;98932.91;4184371;28;20399;-76
2022/11/30 01:29:28;;;;;;;15.90;9.55;;;;;;;3.96;100.00;98936.91;4201677;28;20044;-76
2022/11/30 01:31:28;;;;;;;17.92;10.27;;;;;;;3.95;100.00;98935.31;4201326;28;20066;-76
2022/11/30 01:33:28;;;;;;;17.52;10.90;;;;;;;3.97;100.00;98943.19;4201115;28;20079;-76
2022/11/30 01:35:29;;;;;;;15.85;9.30;;;;;;;3.94;100.00;98939.97;4202146;28;20040;-76
2022/11/30 01:37:29;;;;;;;16.42;10.15;;;;;;;3.97;100.00;98951.41;4201449;28;20097;-76
2022/11/30 01:39:29;;;;;;;19.52;10.05;;;;;;;3.94;100.00;98939.97;4204636;28;20058;-75
2022/11/30 01:41:31;;;;;;;16.15;9.65;;;;;;;3.96;100.00;98942.38;4205416;28;20395;-76
2022/11/30 01:43:43;;;;;;;18.20;11.43;;;;;;;3.94;100.00;98939.16;4204712;28;20445;-76
2022/11/30 01:45:46;;;;;;;17.08;10.00;;;;;;;3.94;100.00;98936.44;4205662;28;20616;-76
2022/11/30 01:47:50;;;;;;;19.05;10.43;;;;;;;3.96;100.00;98945.13;4187516;28;20045;-75
2022/11/30 01:49:57;;;;;;;18.48;10.05;;;;;;;3.96;100.00;98942.38;4205160;28;20131;-75
2022/11/30 01:52:01;;;;;;;21.75;11.25;;;;;;;3.97;100.00;98949.47;4204769;28;20440;-76
2022/11/30 01:54:06;;;;;;;17.13;10.00;;;;;;;3.97;100.00;98941.25;4204016;28;20109;-76
2022/11/30 01:56:07;;;;;;;17.33;9.88;;;;;;;3.98;100.00;98931.13;4186520;28;20043;-76
2022/11/30 01:58:12;;;;;;;20.52;10.65;;;;;;;3.96;100.00;98934.16;4204812;28;20541;-76
2022/11/30 02:00:14;;;;;;;17.63;9.88;;;;;;;4.00;100.00;98932.41;4205086;28;20292;-75
2022/11/30 02:02:19;;;;;;;21.23;10.50;;;;;;;4.00;100.00;98932.41;4205267;28;20031;-75
2022/11/30 02:04:24;;;;;;;19.63;10.77;;;;;;;4.00;100.00;98935.16;4205024;28;20046;-76
2022/11/30 02:06:24;;;;;;;19.20;9.73;;;;;;;3.99;100.00;98933.53;4204014;28;20044;-76
2022/11/30 02:08:26;;;;;;;20.13;10.18;;;;;;;3.99;100.00;98925.34;4205120;28;20101;-75
2022/11/30 02:10:32;;;;;;;16.63;9.65;;;;;;;3.99;100.00;98928.06;4204894;28;20548;-76
2022/11/30 02:13:08;;;;;;;21.63;11.48;;;;;;;3.99;100.00;98936.28;4204250;28;20239;-76
2022/11/30 02:15:15;;;;;;;23.35;10.07;;;;;;;3.99;100.00;98938.22;4204605;28;20044;-76
2022/11/30 02:18:01;;;;;;;17.25;9.60;;;;;;;3.98;100.00;98937.41;4203650;28;20400;-76
2022/11/30 02:20:30;;;;;;;17.83;9.93;;;;;;;4.00;100.00;98937.09;4202579;28;20044;-76
2022/11/30 02:22:58;;;;;;;18.70;9.43;;;;;;;3.99;100.00;98936.28;4204564;28;20079;-76
2022/11/30 02:25:18;;;;;;;16.45;9.43;;;;;;;4.00;100.00;98937.09;4204289;28;20040;-76
2022/11/30 02:27:35;;;;;;;23.50;11.20;;;;;;;3.99;100.00;98935.47;4204920;28;20403;-76
2022/11/30 02:29:42;;;;;;;22.88;10.70;;;;;;;3.98;100.00;98928.41;4204071;28;20052;-76
2022/11/30 02:31:53;;;;;;;19.98;10.15;;;;;;;3.99;100.00;98930.00;4203901;28;20062;-76
2022/11/30 02:33:56;;;;;;;27.40;11.88;;;;;;;3.99;100.00;98933.53;4185774;28;20102;-76
2022/11/30 02:35:58;;;;;;;28.73;12.60;;;;;;;4.00;100.00;98923.41;4204263;28;20032;-76
2022/11/30 02:38:00;;;;;;;24.52;10.65;;;;;;;4.00;100.00;98923.41;4204249;28;20063;-76
2022/11/30 02:40:00;;;;;;;29.17;13.60;;;;;;;3.99;100.00;98930.81;4204300;28;20052;-76
2022/11/30 02:42:01;;;;;;;26.20;11.10;;;;;;;4.00;100.00;98923.41;4203924;28;20101;-76
2022/11/30 02:44:02;;;;;;;27.92;12.32;;;;;;;4.00;100.00;98920.66;4203996;28;20036;-75
2022/11/30 02:46:40;;;;;;;28.75;11.68;;;;;;;3.99;100.00;98922.59;4204462;28;20058;-76
2022/11/30 02:48:59;;;;;;;24.05;12.20;;;;;;;3.99;100.00;98922.59;4204763;28;20071;-75
2022/11/30 02:51:03;;;;;;;28.50;12.20;;;;;;;4.00;100.00;98926.13;4203495;28;20075;-76
2022/11/30 02:53:04;;;;;;;30.75;13.18;;;;;;;4.00;100.00;98920.66;4203852;28;20322;-76
2022/11/30 02:55:07;;;;;;;30.00;12.95;;;;;;;4.00;100.00;98917.91;4203918;28;20048;-76
2022/11/30 02:57:08;;;;;;;28.70;12.98;;;;;;;4.00;100.00;98917.91;4204075;28;20039;-76
2022/11/30 02:59:08;;;;;;;33.10;13.23;;;;;;;4.02;100.00;98924.66;4204530;28;20127;-75
2022/11/30 03:01:09;;;;;;;26.20;13.27;;;;;;;4.01;100.00;98914.84;4185776;28;20044;-76
2022/11/30 03:03:09;;;;;;;29.75;12.98;;;;;;;4.03;100.00;98920.00;4203214;28;20451;-75
2022/11/30 03:05:09;;;;;;;24.30;12.93;;;;;;;4.01;100.00;98923.06;4204058;28;20032;-76
2022/11/30 03:07:10;;;;;;;30.38;13.27;;;;;;;4.01;100.00;98936.75;4186275;28;20202;-76
2022/11/30 03:09:10;;;;;;;29.88;13.23;;;;;;;4.00;100.00;98939.81;4204036;28;20036;-76
2022/11/30 03:11:11;;;;;;;29.33;12.55;;;;;;;3.99;100.00;98933.53;4203828;28;20369;-75
2022/11/30 03:13:11;;;;;;;28.08;13.18;;;;;;;3.98;100.00;98934.69;4203098;28;20060;-76
2022/11/30 03:15:11;;;;;;;26.58;12.10;;;;;;;3.99;100.00;98941.75;4204153;28;20039;-76
2022/11/30 03:17:12;;;;;;;27.25;12.90;;;;;;;4.03;100.00;98950.13;4203929;28;20055;-76
2022/11/30 03:19:13;;;;;;;27.42;12.73;;;;;;;4.00;100.00;98943.38;4203287;28;20375;-76
2022/11/30 03:21:13;;;;;;;23.80;11.65;;;;;;;4.00;100.00;98951.56;4203542;28;20043;-76
2022/11/30 03:23:13;;;;;;;27.95;13.73;;;;;;;4.03;100.00;98961.06;4203304;28;20036;-76
2022/11/30 03:25:14;;;;;;;22.73;11.75;;;;;;;4.03;100.00;98961.06;4203514;28;20119;-76
2022/11/30 03:27:14;;;;;;;25.52;12.35;;;;;;;4.04;100.00;98962.69;4202973;28;20400;-75
2022/11/30 03:29:14;;;;;;;22.63;10.90;;;;;;;4.05;100.00;98962.34;4185664;28;20048;-76
2022/11/30 03:31:15;;;;;;;24.00;12.05;;;;;;;4.05;100.00;98953.34;4185608;28;20060;-76
2022/11/30 03:33:16;;;;;;;25.98;12.60;;;;;;;4.04;100.00;98965.41;4203007;28;20040;-76
2022/11/30 03:35:17;;;;;;;24.63;11.90;;;;;;;4.04;100.00;98963.47;4203635;28;20105;-76
2022/11/30 03:37:17;;;;;;;25.58;12.10;;;;;;;4.00;100.00;98957.06;4203691;28;20044;-76
2022/11/30 03:39:18;;;;;;;23.00;11.52;;;;;;;4.03;100.00;98966.53;4185360;28;20098;-76
2022/11/30 03:41:18;;;;;;;23.63;11.43;;;;;;;4.04;100.00;98962.69;4203456;28;20052;-76
2022/11/30 03:43:19;;;;;;;23.25;10.70;;;;;;;4.04;100.00;98968.16;4184547;28;20454;-76
2022/11/30 03:45:19;;;;;;;20.52;10.00;;;;;;;4.04;100.00;98962.69;4203250;28;20044;-76
2022/11/30 03:47:19;;;;;;;23.95;11.23;;;;;;;4.03;100.00;98969.28;4203351;28;20475;-76
2022/11/30 03:49:19;;;;;;;23.75;10.60;;;;;;;4.03;100.00;98963.81;4203198;28;20495;-76
2022/11/30 03:51:20;;;;;;;25.27;10.45;;;;;;;4.03;100.00;98970.09;4203009;28;20052;-76
2022/11/30 03:53:22;;;;;;;21.67;10.43;;;;;;;4.03;100.00;98967.34;4202866;28;20082;-75
2022/11/30 03:55:22;;;;;;;21.63;10.80;;;;;;;4.04;100.00;98973.63;4202809;28;20036;-76
2022/11/30 03:57:22;;;;;;;26.25;11.50;;;;;;;4.03;100.00;98969.28;4202874;28;20104;-76
2022/11/30 03:59:23;;;;;;;20.17;11.35;;;;;;;4.04;100.00;98971.69;4203217;28;20085;-76
2022/11/30 04:01:23;;;;;;;27.98;11.13;;;;;;;4.03;100.00;98969.28;4202529;28;20193;-76
2022/11/30 04:03:24;;;;;;;26.27;11.43;;;;;;;4.02;100.00;98970.41;4201638;28;20637;-75
2022/11/30 04:05:24;;;;;;;20.95;9.82;;;;;;;4.01;100.00;98969.63;4202463;28;20127;-75
2022/11/30 04:07:24;;;;;;;21.90;10.35;;;;;;;4.02;100.00;98971.22;4203260;28;20040;-76
2022/11/30 04:09:25;;;;;;;22.17;10.00;;;;;;;4.03;100.00;98966.53;4202314;28;20067;-76
2022/11/30 04:11:25;;;;;;;18.33;9.65;;;;;;;4.02;100.00;98979.44;4203075;28;20051;-76
2022/11/30 04:13:27;;;;;;;22.67;10.52;;;;;;;4.00;100.00;98962.53;4202027;28;20172;-76
2022/11/30 04:15:27;;;;;;;20.00;9.47;;;;;;;4.01;100.00;98968.81;4203173;28;20459;-76
2022/11/30 04:17:27;;;;;;;22.63;10.27;;;;;;;4.04;100.00;98979.09;4202273;28;20294;-75
2022/11/30 04:19:28;;;;;;;20.63;10.95;;;;;;;4.03;100.00;98975.56;4202051;28;20178;-76
2022/11/30 04:21:28;;;;;;;20.35;11.07;;;;;;;4.04;100.00;98976.38;4203474;28;20932;-76
2022/11/30 04:23:31;;;;;;;19.73;9.30;;;;;;;4.04;100.00;98977.16;4183797;28;20880;-76
2022/11/30 04:25:31;;;;;;;18.55;9.65;;;;;;;4.03;100.00;98972.81;4203224;28;20075;-76
2022/11/30 04:27:32;;;;;;;19.92;9.80;;;;;;;4.05;100.00;98970.56;4202430;28;20133;-76
2022/11/30 04:29:32;;;;;;;20.63;10.00;;;;;;;4.06;100.00;98979.63;4203567;28;20480;-76
2022/11/30 04:31:32;;;;;;;21.75;10.55;;;;;;;4.06;100.00;98979.63;4202325;28;20135;-76
2022/11/30 04:33:33;;;;;;;23.40;10.52;;;;;;;4.06;100.00;98974.13;4201865;28;20456;-76
2022/11/30 04:35:37;;;;;;;25.58;11.07;;;;;;;4.07;100.00;98975.75;4202908;28;20052;-76
2022/11/30 04:37:38;;;;;;;22.38;10.80;;;;;;;4.09;100.00;98985.22;4201502;28;20476;-76
2022/11/30 04:39:38;;;;;;;25.98;11.93;;;;;;;4.09;100.00;98982.50;4200428;28;20044;-76
2022/11/30 04:41:38;;;;;;;30.48;13.70;;;;;;;4.11;100.00;98982.16;4202458;28;20041;-76
2022/11/30 04:43:39;;;;;;;32.10;13.88;;;;;;;4.15;100.00;98977.66;4201491;28;20581;-76
2022/11/30 04:45:39;;;;;;;31.60;13.52;;;;;;;4.12;100.00;98981.03;4201391;28;20315;-76
2022/11/30 04:47:41;;;;;;;33.15;14.43;;;;;;;4.13;100.00;98983.44;4202916;28;20066;-76
2022/11/30 04:49:41;;;;;;;32.55;13.40;;;;;;;4.11;100.00;98977.50;4202689;28;20040;-76
2022/11/30 04:51:41;;;;;;;35.63;13.90;;;;;;;4.12;100.00;98984.56;4202426;28;20377;-76
2022/11/30 04:53:42;;;;;;;29.23;13.02;;;;;;;4.11;100.00;98985.72;4201790;28;20100;-75
2022/11/30 04:55:42;;;;;;;41.75;14.85;;;;;;;4.11;100.00;98973.94;4202366;28;20075;-76
2022/11/30 04:57:42;;;;;;;29.83;13.65;;;;;;;4.13;100.00;98985.38;4202820;28;20412;-75
2022/11/30 04:59:43;;;;;;;79.78;17.95;;;;;;;4.10;100.00;98977.81;4201982;28;20055;-76
2022/11/30 05:01:43;;;;;;;33.47;15.90;;;;;;;4.09;100.00;98985.22;4201876;28;20044;-76
2022/11/30 05:03:43;;;;;;;40.72;21.27;;;;;;;4.11;100.00;98984.91;4203177;28;20075;-76
2022/11/30 05:05:43;;;;;;;42.08;20.80;;;;;;;4.08;100.00;98986.38;4202672;28;20060;-76
2022/11/30 05:07:49;;;;;;;40.58;18.70;;;;;;;4.07;100.00;98983.97;4202877;28;20487;-76
2022/11/30 05:09:49;;;;;;;34.65;16.73;;;;;;;4.06;100.00;98994.09;4184437;28;20047;-76
2022/11/30 05:11:50;;;;;;;33.95;17.20;;;;;;;4.07;100.00;98995.72;4202573;28;20087;-76
2022/11/30 05:13:50;;;;;;;34.22;14.93;;;;;;;4.08;100.00;98996.53;4201605;28;20055;-75
2022/11/30 05:15:52;;;;;;;53.33;19.02;;;;;;;4.06;100.00;98990.56;4202389;28;20088;-75
2022/11/30 05:17:52;;;;;;;40.95;17.33;;;;;;;4.07;100.00;98990.25;4201891;28;20207;-75
2022/11/30 05:19:53;;;;;;;30.50;14.02;;;;;;;4.05;100.00;98991.66;4202424;28;20044;-76
2022/11/30 05:21:53;;;;;;;26.63;12.85;;;;;;;4.08;100.00;98993.78;4202158;28;20051;-76
2022/11/30 05:23:53;;;;;;;30.58;14.45;;;;;;;4.06;100.00;98996.03;4201904;28;20753;-75
2022/11/30 05:25:54;;;;;;;30.55;16.10;;;;;;;4.07;100.00;98997.66;4202921;28;20040;-76
2022/11/30 05:27:54;;;;;;;31.08;14.32;;;;;;;4.04;100.00;98999.06;4202665;28;20143;-75
2022/11/30 05:29:54;;;;;;;31.80;14.38;;;;;;;4.04;100.00;99003.75;4201697;28;20063;-76
2022/11/30 05:31:55;;;;;;;31.05;14.63;;;;;;;4.05;100.00;98999.88;4200472;28;20143;-76
2022/11/30 05:33:55;;;;;;;33.22;15.73;;;;;;;4.07;100.00;99003.13;4199937;28;20457;-76
2022/11/30 05:35:55;;;;;;;38.83;16.10;;;;;;;4.04;100.00;99003.75;4184988;28;20075;-76
2022/11/30 05:37:56;;;;;;;36.00;14.60;;;;;;;4.07;100.00;99008.59;4202542;28;20052;-76
2022/11/30 05:39:56;;;;;;;31.92;14.48;;;;;;;4.06;100.00;99007.78;4200768;28;20484;-76
2022/11/30 05:41:56;;;;;;;33.22;14.65;;;;;;;4.05;100.00;99005.34;4200387;28;20539;-76
2022/11/30 05:43:57;;;;;;;25.27;13.25;;;;;;;4.07;100.00;99017.63;4200879;28;20395;-76
2022/11/30 05:46:02;;;;;;;26.42;13.02;;;;;;;4.06;100.00;99020.69;4201558;28;20128;-76
2022/11/30 05:48:02;;;;;;;27.50;12.77;;;;;;;4.08;100.00;99018.44;4201344;28;20040;-76
2022/11/30 05:50:03;;;;;;;33.28;15.05;;;;;;;4.08;100.00;99021.16;4200861;28;20032;-76
2022/11/30 05:52:04;;;;;;;28.30;13.32;;;;;;;4.09;100.00;99014.56;4199380;28;20032;-75
2022/11/30 05:54:04;;;;;;;27.70;14.43;;;;;;;4.07;100.00;99022.28;4200572;28;20028;-76
2022/11/30 05:56:08;;;;;;;35.70;17.50;;;;;;;4.07;100.00;99023.09;4202173;28;20024;-76
2022/11/30 05:58:08;;;;;;;34.30;18.15;;;;;;;4.08;100.00;99019.22;4202205;28;20093;-76
2022/11/30 06:00:09;;;;;;;34.08;18.45;;;;;;;4.08;100.00;99021.16;4201883;28;20027;-75
2022/11/30 06:02:09;;;;;;;37.45;17.67;;;;;;;4.09;100.00;99018.09;4201252;28;20273;-76
2022/11/30 06:04:10;;;;;;;32.75;16.58;;;;;;;4.09;100.00;99015.34;4199736;28;20503;-76
2022/11/30 06:06:10;;;;;;;29.90;15.15;;;;;;;4.10;100.00;99018.91;4183249;28;20111;-76
2022/11/30 06:08:10;;;;;;;32.42;15.00;;;;;;;4.10;100.00;99016.97;4202967;28;20063;-76
2022/11/30 06:10:11;;;;;;;30.77;14.45;;;;;;;4.09;100.00;99011.81;4201377;28;20761;-75
2022/11/30 06:12:11;;;;;;;29.95;15.10;;;;;;;4.10;100.00;99013.41;4197000;28;20028;-76
2022/11/30 06:14:12;;;;;;;25.08;13.85;;;;;;;4.10;100.00;99016.16;4131529;27;20055;-76
2022/11/30 06:16:12;;;;;;;25.08;14.02;;;;;;;4.10;100.00;99021.63;4200603;28;20035;-76
2022/11/30 06:18:13;;;;;;;57.55;17.27;;;;;;;4.10;100.00;99013.41;4182411;28;20028;-76
2022/11/30 06:20:13;;;;;;;36.05;18.02;;;;;;;4.10;100.00;99013.41;4201110;28;20020;-76
2022/11/30 06:22:13;;;;;;;37.35;16.63;;;;;;;4.11;100.00;99017.78;4201584;28;20066;-76
2022/11/30 06:24:14;;;;;;;42.00;18.10;;;;;;;4.10;100.00;99018.91;4199243;28;20099;-76
2022/11/30 06:26:14;;;;;;;35.40;17.70;;;;;;;4.10;100.00;99016.16;4203320;28;20241;-76
2022/11/30 06:28:14;;;;;;;32.80;16.15;;;;;;;4.09;100.00;99012.63;4204018;28;20058;-76
2022/11/30 06:30:15;;;;;;;43.00;19.13;;;;;;;4.08;100.00;99011.00;4204259;28;20056;-76
2022/11/30 06:32:15;;;;;;;34.25;16.95;;;;;;;4.05;100.00;99002.63;4203914;28;20503;-76
2022/11/30 06:34:16;;;;;;;37.83;15.65;;;;;;;4.08;100.00;99016.50;4203892;28;20112;-76
2022/11/30 06:36:21;;;;;;;40.15;17.13;;;;;;;4.09;100.00;99018.09;4205016;28;20468;-76
2022/11/30 06:38:22;;;;;;;33.08;15.25;;;;;;;4.08;100.00;99018.44;4205021;28;20084;-76
2022/11/30 06:40:22;;;;;;;30.52;14.82;;;;;;;4.08;100.00;99015.69;4204223;28;20481;-76
2022/11/30 06:42:23;;;;;;;32.45;14.77;;;;;;;4.09;100.00;99022.78;4204371;28;20056;-76
2022/11/30 06:44:23;;;;;;;37.00;17.48;;;;;;;4.10;100.00;99024.38;4201445;28;20055;-76
2022/11/30 06:46:25;;;;;;;33.67;16.77;;;;;;;4.10;100.00;99021.63;4202713;28;20438;-76
2022/11/30 06:48:25;;;;;;;30.50;14.85;;;;;;;4.09;100.00;99025.50;4200771;28;20310;-76
2022/11/30 06:50:25;;;;;;;39.17;17.80;;;;;;;4.06;100.00;99024.22;4201522;28;20052;-76
2022/11/30 06:52:26;;;;;;;31.67;16.85;;;;;;;4.08;100.00;99029.38;4203741;28;20048;-76
2022/11/30 06:54:26;;;;;;;31.02;15.27;;;;;;;4.08;100.00;99027.44;4185245;28;20087;-76
2022/11/30 06:56:26;;;;;;;30.40;15.82;;;;;;;4.07;100.00;99025.84;4186121;28;20048;-76
2022/11/30 06:58:27;;;;;;;36.53;15.43;;;;;;;4.08;100.00;99032.91;4203595;28;20494;-76
2022/11/30 07:00:27;;;;;;;30.38;16.65;;;;;;;4.08;100.00;99032.13;4203169;28;20127;-76
2022/11/30 07:02:27;;;;;;;26.90;14.43;;;;;;;4.09;100.00;99030.97;4204069;28;20500;-76
2022/11/30 07:04:28;;;;;;;31.33;15.60;;;;;;;4.08;100.00;99032.91;4204662;28;20097;-75
2022/11/30 07:06:28;;;;;;;32.03;14.27;;;;;;;4.09;100.00;99028.25;4204287;28;20437;-76
2022/11/30 07:08:29;;;;;;;29.10;14.35;;;;;;;4.10;100.00;99025.19;4204118;28;20048;-75
2022/11/30 07:10:29;;;;;;;32.28;15.70;;;;;;;4.11;100.00;99029.53;4203440;28;20123;-76
2022/11/30 07:12:29;;;;;;;37.50;15.70;;;;;;;4.12;100.00;99033.88;4203437;28;20126;-76
2022/11/30 07:14:30;;;;;;;31.55;14.65;;;;;;;4.12;100.00;99028.41;4203932;28;20048;-76
2022/11/30 07:16:30;;;;;;;33.92;14.90;;;;;;;4.13;100.00;99037.41;4184799;28;20045;-76
2022/11/30 07:18:31;;;;;;;83.30;33.45;;;;;;;4.12;100.00;99036.63;4203348;28;20491;-76
2022/11/30 07:20:32;;;;;;;67.90;26.60;;;;;;;4.14;100.00;99039.84;4202047;28;20749;-75
2022/11/30 07:22:32;;;;;;;35.80;18.63;;;;;;;4.15;100.00;99035.19;4201893;28;20831;-76
2022/11/30 07:26:52;;;;;;;33.85;17.08;;;;;;;4.14;100.00;99044.53;4203104;28;20083;-76
2022/11/30 07:28:53;;;;;;;41.55;16.77;;;;;;;4.13;100.00;99043.69;4186272;28;20455;-76
2022/11/30 07:30:54;;;;;;;31.75;15.23;;;;;;;4.14;100.00;99050.81;4202743;28;20044;-75
2022/11/30 07:32:54;;;;;;;33.63;15.65;;;;;;;4.15;100.00;99036.00;4202343;28;20058;-75
2022/11/30 07:34:54;;;;;;;69.57;17.77;;;;;;;4.15;100.00;99035.19;4203540;28;20314;-76
2022/11/30 07:36:55;;;;;;;38.08;15.77;;;;;;;4.18;100.00;99042.75;4203177;28;20380;-76
2022/11/30 07:38:55;;;;;;;30.42;14.85;;;;;;;4.18;100.00;99048.22;4203590;28;20123;-76
2022/11/30 07:40:57;;;;;;;33.22;16.63;;;;;;;4.20;100.00;99048.69;4203415;28;20055;-76
2022/11/30 07:42:57;;;;;;;69.65;18.95;;;;;;;4.19;100.00;99052.56;4203907;28;20040;-75
2022/11/30 07:44:57;;;;;;;31.63;16.40;;;;;;;4.21;100.00;99044.81;4185612;28;20451;-76
2022/11/30 07:46:59;;;;;;;35.90;16.35;;;;;;;4.19;100.00;99036.13;4204329;28;20379;-76
2022/11/30 07:49:00;;;;;;;33.97;15.93;;;;;;;4.19;100.00;99041.63;4204933;28;20289;-76
2022/11/30 07:51:03;;;;;;;33.10;15.25;;;;;;;4.19;100.00;99047.09;4203469;28;20450;-76
2022/11/30 07:53:03;;;;;;;29.35;14.40;;;;;;;4.19;100.00;99044.34;4202993;28;20052;-76
2022/11/30 07:55:04;;;;;;;28.33;13.27;;;;;;;4.22;100.00;99054.69;4203101;28;20422;-76
2022/11/30 07:57:05;;;;;;;34.45;15.73;;;;;;;4.22;100.00;99046.47;4204426;28;20052;-76
2022/11/30 07:59:05;;;;;;;32.22;15.13;;;;;;;4.19;100.00;99042.41;4203883;28;20044;-76
2022/11/30 08:01:10;;;;;;;26.95;13.48;;;;;;;4.22;100.00;99051.94;4203157;28;20517;-76
2022/11/30 08:03:10;;;;;;;32.45;15.43;;;;;;;4.21;100.00;99042.91;4202749;28;20527;-76
2022/11/30 08:05:11;;;;;;;31.38;15.35;;;;;;;4.20;100.00;99048.69;4203919;28;20075;-76
2022/11/30 08:07:11;;;;;;;34.13;15.63;;;;;;;4.25;100.00;99053.22;4203724;28;20126;-75
2022/11/30 08:09:11;;;;;;;39.78;16.25;;;;;;;4.21;100.00;99045.63;4203424;28;20052;-76
2022/11/30 08:11:14;;;;;;;33.78;15.00;;;;;;;4.19;100.00;99050.63;4203068;28;20404;-76
2022/11/30 08:13:14;;;;;;;38.33;15.43;;;;;;;4.20;100.00;99054.97;4203393;28;20048;-76
2022/11/30 08:15:15;;;;;;;33.58;13.45;;;;;;;4.21;100.00;99058.53;4202189;28;20220;-76
2022/11/30 08:17:15;;;;;;;34.15;13.73;;;;;;;4.20;100.00;99057.72;4202044;28;20677;-76
2022/11/30 08:19:17;;;;;;;27.75;12.32;;;;;;;4.21;100.00;99059.31;4184999;28;20498;-76
2022/11/30 08:21:19;;;;;;;28.90;13.00;;;;;;;4.22;100.00;99060.16;4184576;28;20569;-76
2022/11/30 08:23:20;;;;;;;35.03;16.00;;;;;;;4.25;100.00;99067.72;4201944;28;20172;-76
2022/11/30 08:25:20;;;;;;;27.67;13.18;;;;;;;4.28;100.00;99060.78;4203465;28;20140;-76
2022/11/30 08:27:20;;;;;;;28.02;12.27;;;;;;;4.27;100.00;99059.19;4203509;28;20063;-76
2022/11/30 08:29:21;;;;;;;29.13;12.77;;;;;;;4.27;100.00;99059.97;4203375;28;20132;-76
2022/11/30 08:31:24;;;;;;;29.08;12.98;;;;;;;4.30;100.00;99064.81;4202046;28;20135;-76
2022/11/30 08:33:25;;;;;;;30.15;13.05;;;;;;;4.33;100.00;99068.84;4200565;28;20323;-76
2022/11/30 08:35:25;;;;;;;29.33;13.43;;;;;;;4.33;100.00;99064.19;4202018;28;20099;-76
2022/11/30 08:37:25;;;;;;;30.25;13.05;;;;;;;4.36;100.00;99063.53;4202494;28;20380;-76
2022/11/30 08:39:27;;;;;;;27.80;12.38;;;;;;;4.35;100.00;99067.41;4183562;28;20044;-76
2022/11/30 08:41:27;;;;;;;28.67;12.43;;;;;;;4.35;100.00;99064.66;4203176;28;20070;-76
2022/11/30 08:43:28;;;;;;;27.15;11.73;;;;;;;4.37;100.00;99065.13;4170040;28;20147;-76
2022/11/30 08:45:28;;;;;;;32.33;13.02;;;;;;;4.38;100.00;99069.47;4202088;28;20577;-76
2022/11/30 08:47:29;;;;;;;34.08;14.25;;;;;;;4.38;100.00;99080.44;4203239;28;20043;-76
2022/11/30 08:49:30;;;;;;;33.33;14.90;;;;;;;4.39;100.00;99082.06;4202431;28;20073;-76
2022/11/30 08:51:30;;;;;;;34.00;17.17;;;;;;;4.38;100.00;99079.63;4201606;28;20404;-76
2022/11/30 08:53:31;;;;;;;28.50;14.93;;;;;;;4.39;100.00;99084.81;4200448;28;20445;-76
2022/11/30 08:55:32;;;;;;;32.92;14.25;;;;;;;4.41;100.00;99089.97;4202114;28;20052;-76
2022/11/30 08:57:32;;;;;;;27.77;13.98;;;;;;;4.41;100.00;99096.25;4202744;28;20051;-76
2022/11/30 08:59:33;;;;;;;38.92;19.48;;;;;;;4.42;100.00;99088.84;4202556;28;20068;-76
2022/11/30 09:01:33;;;;;;;34.45;17.08;;;;;;;4.44;100.00;99101.06;4202751;28;20052;-76
2022/11/30 09:03:33;;;;;;;29.98;15.65;;;;;;;4.47;100.00;99100.44;4202565;28;20071;-76
2022/11/30 09:05:34;;;;;;;37.13;15.40;;;;;;;4.47;100.00;99103.19;4202375;28;20098;-76
2022/11/30 09:07:34;;;;;;;33.47;15.27;;;;;;;4.50;100.00;99099.00;4184634;28;20453;-76
2022/11/30 09:09:35;;;;;;;30.88;14.25;;;;;;;4.51;100.00;99101.41;4202467;28;20048;-76
2022/11/30 09:11:35;;;;;;;31.33;14.15;;;;;;;4.55;100.00;99104.31;4183771;28;20051;-76
2022/11/30 09:13:36;;;;;;;32.47;14.70;;;;;;;4.54;100.00;99097.19;4183818;28;20115;-76
2022/11/30 09:15:36;;;;;;;25.73;13.13;;;;;;;4.58;100.00;99116.56;4200717;28;20130;-76
2022/11/30 09:17:37;;;;;;;33.85;14.98;;;;;;;4.60;100.00;99108.81;4200495;28;20055;-76
2022/11/30 09:19:38;;;;;;;28.15;12.82;;;;;;;4.62;100.00;99117.50;4201580;28;20047;-76
2022/11/30 09:21:39;;;;;;;32.97;15.93;;;;;;;4.64;100.00;99107.88;4201828;28;20126;-76
2022/11/30 09:23:39;;;;;;;30.27;13.68;;;;;;;4.65;100.00;99111.41;4201392;28;20048;-76